createdAt,value
2018-04-22T00:01:07.057Z,8.03
2018-04-22T00:03:34.562Z,8.43
2018-04-22T00:06:02.078Z,8.47
2018-04-22T00:08:29.610Z,8.07
2018-04-22T00:10:57.135Z,8.20
2018-04-22T00:13:25.415Z,9.00
2018-04-22T00:15:53.682Z,8.33
2018-04-22T00:18:21.194Z,9.03
2018-04-22T00:20:48.712Z,8.40
2018-04-22T00:23:17.038Z,8.23
2018-04-22T00:25:44.554Z,7.37
2018-04-22T00:28:12.868Z,6.43
2018-04-22T00:30:40.366Z,6.57
2018-04-22T00:33:07.912Z,6.10
2018-04-22T00:35:35.416Z,6.90
2018-04-22T00:38:02.918Z,6.67
2018-04-22T00:40:30.455Z,7.00
2018-04-22T00:42:58.748Z,7.27
2018-04-22T00:45:27.058Z,7.87
2018-04-22T00:47:54.570Z,8.13
2018-04-22T00:50:22.088Z,8.47
2018-04-22T00:52:49.612Z,9.40
2018-04-22T00:55:17.887Z,8.47
2018-04-22T00:57:46.208Z,8.00
2018-04-22T01:00:13.721Z,7.70
2018-04-22T01:02:41.246Z,10.00
2018-04-22T01:05:08.765Z,7.47
2018-04-22T01:07:37.052Z,7.73
2018-04-22T01:10:05.326Z,7.20
2018-04-22T01:12:33.638Z,8.20
2018-04-22T01:15:01.149Z,7.20
2018-04-22T01:17:29.450Z,8.27
2018-04-22T01:19:56.982Z,6.43
2018-04-22T01:22:24.498Z,6.73
2018-04-22T01:24:52.023Z,8.27
2018-04-22T01:27:19.537Z,7.47
2018-04-22T01:29:47.091Z,8.30
2018-04-22T01:32:15.371Z,8.20
2018-04-22T01:34:43.647Z,7.77
2018-04-22T01:37:11.936Z,8.40
2018-04-22T01:39:39.439Z,8.53
2018-04-22T01:42:07.081Z,8.00
2018-04-22T01:44:34.583Z,8.83
2018-04-22T01:47:02.118Z,6.70
2018-04-22T01:49:29.630Z,8.30
2018-04-22T01:51:57.912Z,6.50
2018-04-22T01:54:26.222Z,7.20
2018-04-22T01:56:53.727Z,7.47
2018-04-22T01:59:21.260Z,7.40
2018-04-22T02:01:48.763Z,6.10
2018-04-22T02:04:16.285Z,7.07
2018-04-22T02:06:43.809Z,6.87
2018-04-22T02:09:11.373Z,6.57
2018-04-22T02:11:38.885Z,6.47
2018-04-22T02:14:06.411Z,5.93
2018-04-22T02:16:34.700Z,6.37
2018-04-22T02:19:02.287Z,6.23
2018-04-22T02:21:29.819Z,8.00
2018-04-22T02:23:58.108Z,6.30
2018-04-22T02:26:26.393Z,6.27
2018-04-22T02:28:54.675Z,6.60
2018-04-22T02:31:22.968Z,6.40
2018-04-22T02:33:50.478Z,6.83
2018-04-22T02:36:18.003Z,6.47
2018-04-22T02:38:45.542Z,5.37
2018-04-22T02:41:13.823Z,6.20
2018-04-22T02:43:42.107Z,6.23
2018-04-22T02:46:10.376Z,6.20
2018-04-22T02:48:38.674Z,6.23
2018-04-22T02:51:06.946Z,6.53
2018-04-22T02:53:35.246Z,5.53
2018-04-22T02:56:02.766Z,7.80
2018-04-22T02:58:30.299Z,6.57
2018-04-22T03:00:57.837Z,6.40
2018-04-22T03:03:25.342Z,7.27
2018-04-22T03:05:52.864Z,5.87
2018-04-22T03:08:20.376Z,6.00
2018-04-22T03:10:47.890Z,5.53
2018-04-22T03:13:15.400Z,5.50
2018-04-22T03:15:42.923Z,6.97
2018-04-22T03:18:10.441Z,6.70
2018-04-22T03:20:38.729Z,6.27
2018-04-22T03:23:07.011Z,6.30
2018-04-22T03:25:35.333Z,6.10
2018-04-22T03:28:02.846Z,6.70
2018-04-22T03:30:30.374Z,7.77
2018-04-22T03:32:57.896Z,6.70
2018-04-22T03:35:26.166Z,6.67
2018-04-22T03:37:54.459Z,7.40
2018-04-22T03:40:22.740Z,5.97
2018-04-22T03:42:51.039Z,8.07
2018-04-22T03:45:18.539Z,8.60
2018-04-22T03:47:46.067Z,7.60
2018-04-22T03:50:13.590Z,7.30
2018-04-22T03:52:41.090Z,7.90
2018-04-22T03:55:08.624Z,6.30
2018-04-22T03:57:36.129Z,8.47
2018-04-22T04:00:03.656Z,7.93
2018-04-22T04:02:31.935Z,7.50
2018-04-22T04:05:00.239Z,7.80
2018-04-22T04:07:27.761Z,8.47
2018-04-22T04:09:55.383Z,7.80
2018-04-22T04:12:22.920Z,7.07
2018-04-22T04:14:51.205Z,7.60
2018-04-22T04:17:19.491Z,7.70
2018-04-22T04:19:59.670Z,7.30
2018-04-22T04:22:44.788Z,7.43
2018-04-22T04:25:38.078Z,8.40
2018-04-22T04:28:05.738Z,9.57
2018-04-22T04:30:33.255Z,9.40
2018-04-22T04:33:00.782Z,8.90
2018-04-22T04:35:28.291Z,9.87
2018-04-22T04:37:57.301Z,10.23
2018-04-22T04:40:25.591Z,8.80
2018-04-22T04:42:53.112Z,8.70
2018-04-22T04:45:20.635Z,9.50
2018-04-22T04:47:48.142Z,10.30
2018-04-22T04:50:15.686Z,10.50
2018-04-22T04:52:43.203Z,10.73
2018-04-22T04:55:11.531Z,9.63
2018-04-22T04:57:39.047Z,8.87
2018-04-22T05:00:07.347Z,8.60
2018-04-22T05:02:34.876Z,8.53
2018-04-22T05:05:02.403Z,8.50
2018-04-22T05:07:29.944Z,7.87
2018-04-22T05:09:57.448Z,9.67
2018-04-22T05:12:24.985Z,9.63
2018-04-22T05:14:52.481Z,9.57
2018-04-22T05:17:20.029Z,8.30
2018-04-22T05:19:47.550Z,8.27
2018-04-22T05:22:15.077Z,6.80
2018-04-22T05:24:42.593Z,8.93
2018-04-22T05:27:10.163Z,7.17
2018-04-22T05:29:37.680Z,5.30
2018-04-22T05:32:05.976Z,6.00
2018-04-22T05:34:34.262Z,6.67
2018-04-22T05:37:02.502Z,6.67
2018-04-22T05:39:30.032Z,5.60
2018-04-22T05:41:57.556Z,5.90
2018-04-22T05:44:25.849Z,5.90
2018-04-22T05:46:54.162Z,5.60
2018-04-22T05:49:21.716Z,6.00
2018-04-22T05:51:49.223Z,6.23
2018-04-22T05:54:16.742Z,5.50
2018-04-22T05:56:44.278Z,5.53
2018-04-22T05:59:12.549Z,5.27
2018-04-22T06:01:40.853Z,4.73
2018-04-22T06:04:09.119Z,5.50
2018-04-22T06:06:37.424Z,5.87
2018-04-22T06:09:04.948Z,5.33
2018-04-22T06:11:32.489Z,5.70
2018-04-22T06:14:00.014Z,6.17
2018-04-22T06:16:27.541Z,4.60
2018-04-22T06:18:55.075Z,4.97
2018-04-22T06:21:22.583Z,4.47
2018-04-22T06:23:50.889Z,4.50
2018-04-22T06:26:18.419Z,5.70
2018-04-22T06:28:45.985Z,5.57
2018-04-22T06:31:13.489Z,5.00
2018-04-22T06:33:41.055Z,4.70
2018-04-22T06:36:08.549Z,4.30
2018-04-22T06:38:36.126Z,5.23
2018-04-22T06:41:04.417Z,4.40
2018-04-22T06:43:31.926Z,4.83
2018-04-22T06:45:59.463Z,4.83
2018-04-22T06:48:27.737Z,5.37
2018-04-22T06:50:56.024Z,4.10
2018-04-22T06:53:24.365Z,3.60
2018-04-22T06:55:51.956Z,4.80
2018-04-22T06:58:19.471Z,4.70
2018-04-22T07:00:46.991Z,4.60
2018-04-22T07:03:14.507Z,5.03
2018-04-22T07:05:42.018Z,4.83
2018-04-22T07:08:10.333Z,3.97
2018-04-22T07:10:37.863Z,4.33
2018-04-22T07:13:06.158Z,7.63
2018-04-22T07:15:34.446Z,7.33
2018-04-22T07:18:02.740Z,9.07
2018-04-22T07:20:30.268Z,9.27
2018-04-22T07:22:57.818Z,9.30
2018-04-22T07:25:25.340Z,9.30
2018-04-22T07:27:52.853Z,8.57
2018-04-22T07:30:20.397Z,8.63
2018-04-22T07:32:47.911Z,9.13
2018-04-22T07:35:15.437Z,9.57
2018-04-22T07:37:42.948Z,9.10
2018-04-22T07:40:10.479Z,8.73
2018-04-22T07:42:38.772Z,8.80
2018-04-22T07:45:07.077Z,8.23
2018-04-22T07:47:34.596Z,8.13
2018-04-22T07:50:03.659Z,8.77
2018-04-22T07:52:31.166Z,6.60
2018-04-22T07:54:59.562Z,7.10
2018-04-22T07:57:27.142Z,7.50
2018-04-22T07:59:54.667Z,8.20
2018-04-22T08:02:22.665Z,7.00
2018-04-22T08:04:50.969Z,7.50
2018-04-22T08:07:18.506Z,6.90
2018-04-22T08:09:46.780Z,6.83
2018-04-22T08:12:14.360Z,6.63
2018-04-22T08:14:42.694Z,6.93
2018-04-22T08:17:10.232Z,7.40
2018-04-22T08:19:37.754Z,7.33
2018-04-22T08:22:05.290Z,7.20
2018-04-22T08:24:33.233Z,7.37
2018-04-22T08:27:01.772Z,7.27
2018-04-22T08:29:32.135Z,6.80
2018-04-22T08:32:01.985Z,6.60
2018-04-22T08:34:29.547Z,6.43
2018-04-22T08:36:57.071Z,7.37
2018-04-22T08:39:25.478Z,7.00
2018-04-22T08:41:53.590Z,5.60
2018-04-22T08:44:21.218Z,6.47
2018-04-22T08:46:48.763Z,5.80
2018-04-22T08:49:18.182Z,5.80
2018-04-22T08:51:47.179Z,6.03
2018-04-22T08:54:14.699Z,6.57
2018-04-22T08:56:42.335Z,5.70
2018-04-22T08:59:09.863Z,5.67
2018-04-22T09:01:37.377Z,6.10
2018-04-22T09:04:04.920Z,7.53
2018-04-22T09:06:32.440Z,5.67
2018-04-22T09:09:00.731Z,5.83
2018-04-22T09:11:29.008Z,6.60
2018-04-22T09:13:57.296Z,6.40
2018-04-22T09:16:25.591Z,6.80
2018-04-22T09:18:53.102Z,7.00
2018-04-22T09:21:20.645Z,7.00
2018-04-22T09:23:48.159Z,6.50
2018-04-22T09:26:16.458Z,8.13
2018-04-22T09:28:43.977Z,6.90
2018-04-22T09:31:12.263Z,6.03
2018-04-22T09:33:39.823Z,6.00
2018-04-22T09:36:07.346Z,6.53
2018-04-22T09:38:34.866Z,6.87
2018-04-22T09:41:03.163Z,9.40
2018-04-22T09:43:31.458Z,6.00
2018-04-22T09:45:59.043Z,5.53
2018-04-22T09:48:27.312Z,5.50
2018-04-22T09:50:54.834Z,7.03
2018-04-22T09:53:23.128Z,6.77
2018-04-22T09:55:50.672Z,6.90
2018-04-22T09:58:18.180Z,6.57
2018-04-22T10:00:46.540Z,5.90
2018-04-22T10:03:14.827Z,6.30
2018-04-22T10:05:53.993Z,6.17
2018-04-22T10:08:21.522Z,6.23
2018-04-22T10:10:49.871Z,6.23
2018-04-22T10:13:17.349Z,6.73
2018-04-22T10:15:45.611Z,6.83
2018-04-22T10:18:13.127Z,6.60
2018-04-22T10:20:40.657Z,6.43
2018-04-22T10:23:08.953Z,6.40
2018-04-22T10:25:37.255Z,6.50
2018-04-22T10:28:04.777Z,7.93
2018-04-22T10:30:33.068Z,7.20
2018-04-22T10:33:01.412Z,7.47
2018-04-22T10:35:28.894Z,7.23
2018-04-22T10:37:56.439Z,6.20
2018-04-22T10:40:24.003Z,7.50
2018-04-22T10:42:52.058Z,7.00
2018-04-22T10:45:19.592Z,7.40
2018-04-22T10:47:47.910Z,6.73
2018-04-22T10:50:15.440Z,6.23
2018-04-22T10:52:43.713Z,5.63
2018-04-22T10:55:12.072Z,7.23
2018-04-22T10:57:39.568Z,5.70
2018-04-22T11:00:07.841Z,5.67
2018-04-22T11:02:36.145Z,4.57
2018-04-22T11:05:03.715Z,4.90
2018-04-22T11:07:32.005Z,4.30
2018-04-22T11:09:59.552Z,4.70
2018-04-22T11:12:27.078Z,5.07
2018-04-22T11:14:55.358Z,4.93
2018-04-22T11:17:22.910Z,4.07
2018-04-22T11:19:50.428Z,4.07
2018-04-22T11:22:17.967Z,6.13
2018-04-22T11:24:46.253Z,5.67
2018-04-22T11:27:14.537Z,4.17
2018-04-22T11:29:42.135Z,4.97
2018-04-22T11:32:09.651Z,5.27
2018-04-22T11:34:37.982Z,4.50
2018-04-22T11:37:05.534Z,4.80
2018-04-22T11:39:33.092Z,4.57
2018-04-22T11:42:00.634Z,4.10
2018-04-22T11:44:28.167Z,4.37
2018-04-22T11:46:55.663Z,4.53
2018-04-22T11:49:23.975Z,4.97
2018-04-22T11:51:51.491Z,3.90
2018-04-22T11:54:19.769Z,4.97
2018-04-22T11:56:47.300Z,5.30
2018-04-22T11:59:14.818Z,4.57
2018-04-22T12:01:43.107Z,5.50
2018-04-22T12:04:10.658Z,4.47
2018-04-22T12:06:38.965Z,4.40
2018-04-22T12:09:06.476Z,4.30
2018-04-22T12:11:35.521Z,5.37
2018-04-22T12:14:03.041Z,4.07
2018-04-22T12:16:30.554Z,4.30
2018-04-22T12:18:58.089Z,4.23
2018-04-22T12:21:26.364Z,4.10
2018-04-22T12:23:54.647Z,3.50
2018-04-22T12:26:22.941Z,4.63
2018-04-22T12:28:51.235Z,4.80
2018-04-22T12:31:18.761Z,4.43
2018-04-22T12:33:47.074Z,4.00
2018-04-22T12:36:14.598Z,4.67
2018-04-22T12:38:42.121Z,4.30
2018-04-22T12:41:09.659Z,4.60
2018-04-22T12:43:37.935Z,5.37
2018-04-22T12:46:06.232Z,5.47
2018-04-22T12:48:33.747Z,4.80
2018-04-22T12:51:01.371Z,5.20
2018-04-22T12:53:28.887Z,4.80
2018-04-22T12:55:56.516Z,4.10
2018-04-22T12:58:24.043Z,4.10
2018-04-22T13:00:52.321Z,5.27
2018-04-22T13:03:20.612Z,4.53
2018-04-22T13:05:48.137Z,5.13
2018-04-22T13:08:15.687Z,4.03
2018-04-22T13:10:43.200Z,4.43
2018-04-22T13:13:10.742Z,5.07
2018-04-22T13:15:38.255Z,3.90
2018-04-22T13:18:05.774Z,5.20
2018-04-22T13:20:34.049Z,4.57
2018-04-22T13:23:02.354Z,4.20
2018-04-22T13:25:29.880Z,5.10
2018-04-22T13:27:57.408Z,4.60
2018-04-22T13:30:24.927Z,4.20
2018-04-22T13:32:53.217Z,4.03
2018-04-22T13:35:21.624Z,5.23
2018-04-22T13:37:49.138Z,4.40
2018-04-22T13:40:16.667Z,4.27
2018-04-22T13:42:44.176Z,4.50
2018-04-22T13:45:12.483Z,4.77
2018-04-22T13:47:40.759Z,4.17
2018-04-22T13:50:09.030Z,4.20
2018-04-22T13:52:37.323Z,4.57
2018-04-22T13:55:05.570Z,4.50
2018-04-22T13:57:33.874Z,4.80
2018-04-22T14:00:02.162Z,5.83
2018-04-22T14:02:30.515Z,5.53
2018-04-22T14:04:57.990Z,4.33
2018-04-22T14:07:26.290Z,4.13
2018-04-22T14:09:54.566Z,4.20
2018-04-22T14:12:22.855Z,4.73
2018-04-22T14:14:50.434Z,4.67
2018-04-22T14:17:17.999Z,5.00
2018-04-22T14:19:45.575Z,5.07
2018-04-22T14:22:13.834Z,4.70
2018-04-22T14:24:41.368Z,4.40
2018-04-22T14:27:09.637Z,5.30
2018-04-22T14:29:37.165Z,5.47
2018-04-22T14:32:04.692Z,4.63
2018-04-22T14:34:32.998Z,4.73
2018-04-22T14:37:00.790Z,4.33
2018-04-22T14:39:28.323Z,4.87
2018-04-22T14:41:55.843Z,4.40
2018-04-22T14:44:35.396Z,5.63
2018-04-22T14:47:02.909Z,4.20
2018-04-22T14:49:30.442Z,4.40
2018-04-22T14:51:58.727Z,5.10
2018-04-22T14:54:27.028Z,4.60
2018-04-22T14:56:54.549Z,5.50
2018-04-22T14:59:22.058Z,5.00
2018-04-22T15:01:49.602Z,4.37
2018-04-22T15:04:17.115Z,4.63
2018-04-22T15:06:44.642Z,3.83
2018-04-22T15:09:12.156Z,4.40
2018-04-22T15:11:39.703Z,4.97
2018-04-22T15:14:07.216Z,4.57
2018-04-22T15:16:35.510Z,5.40
2018-04-22T15:19:03.044Z,4.80
2018-04-22T15:21:31.330Z,4.77
2018-04-22T15:23:59.636Z,5.37
2018-04-22T15:26:27.153Z,5.00
2018-04-22T15:28:54.719Z,5.77
2018-04-22T15:31:22.253Z,5.10
2018-04-22T15:33:49.772Z,5.30
2018-04-22T15:36:18.079Z,4.97
2018-04-22T15:38:45.616Z,5.43
2018-04-22T15:41:13.952Z,5.17
2018-04-22T15:43:41.479Z,5.10
2018-04-22T15:46:08.999Z,4.87
2018-04-22T15:48:36.532Z,4.23
2018-04-22T15:51:04.040Z,4.63
2018-04-22T15:53:31.601Z,5.07
2018-04-22T15:55:59.119Z,4.37
2018-04-22T15:58:26.627Z,4.63
2018-04-22T16:00:54.151Z,5.13
2018-04-22T16:03:21.667Z,4.80
2018-04-22T16:05:50.001Z,5.13
2018-04-22T16:08:17.572Z,5.20
2018-04-22T16:10:45.084Z,4.80
2018-04-22T16:13:13.384Z,5.10
2018-04-22T16:15:40.943Z,4.23
2018-04-22T16:18:08.448Z,4.77
2018-04-22T16:20:35.980Z,4.10
2018-04-22T16:23:03.500Z,4.77
2018-04-22T16:25:31.796Z,5.00
2018-04-22T16:28:00.101Z,4.83
2018-04-22T16:30:27.625Z,4.30
2018-04-22T16:32:55.180Z,4.70
2018-04-22T16:35:22.747Z,4.50
2018-04-22T16:37:50.236Z,4.40
2018-04-22T16:40:18.535Z,4.67
2018-04-22T16:42:46.095Z,5.20
2018-04-22T16:45:13.622Z,4.20
2018-04-22T16:47:41.145Z,5.40
2018-04-22T16:50:08.741Z,4.23
2018-04-22T16:52:36.251Z,4.37
2018-04-22T16:55:03.776Z,4.40
2018-04-22T16:57:31.317Z,5.07
2018-04-22T16:59:58.846Z,6.40
2018-04-22T17:02:26.385Z,6.23
2018-04-22T17:04:54.661Z,5.23
2018-04-22T17:07:22.962Z,5.87
2018-04-22T17:09:51.235Z,6.70
2018-04-22T17:12:19.537Z,5.53
2018-04-22T17:14:47.097Z,5.50
2018-04-22T17:17:14.618Z,4.50
2018-04-22T17:19:43.060Z,4.43
2018-04-22T17:22:10.608Z,5.10
2018-04-22T17:24:38.158Z,4.83
2018-04-22T17:27:06.436Z,4.90
2018-04-22T17:29:34.732Z,4.90
2018-04-22T17:32:03.024Z,4.87
2018-04-22T17:34:30.557Z,4.53
2018-04-22T17:36:58.892Z,5.00
2018-04-22T17:39:26.452Z,4.90
2018-04-22T17:41:54.026Z,5.70
2018-04-22T17:44:21.675Z,5.63
2018-04-22T17:46:49.221Z,4.60
2018-04-22T17:49:16.760Z,4.80
2018-04-22T17:51:45.083Z,5.70
2018-04-22T17:54:12.602Z,6.23
2018-04-22T17:56:40.896Z,5.30
2018-04-22T17:59:09.304Z,5.13
2018-04-22T18:01:36.858Z,5.00
2018-04-22T18:04:05.193Z,5.77
2018-04-22T18:06:32.726Z,5.90
2018-04-22T18:09:00.280Z,6.33
2018-04-22T18:11:27.847Z,6.00
2018-04-22T18:13:55.395Z,6.63
2018-04-22T18:16:22.943Z,6.50
2018-04-22T18:18:51.239Z,6.40
2018-04-22T18:21:18.778Z,7.00
2018-04-22T18:23:46.386Z,7.40
2018-04-22T18:26:13.916Z,9.10
2018-04-22T18:28:42.270Z,7.67
2018-04-22T18:31:09.883Z,6.43
2018-04-22T18:33:37.563Z,7.20
2018-04-22T18:36:05.755Z,6.40
2018-04-22T18:38:33.325Z,6.17
2018-04-22T18:41:01.078Z,7.57
2018-04-22T18:43:28.603Z,6.80
2018-04-22T18:45:56.213Z,6.57
2018-04-22T18:48:23.878Z,7.70
2018-04-22T18:50:52.460Z,6.50
2018-04-22T18:53:20.027Z,6.77
2018-04-22T18:55:47.670Z,6.37
2018-04-22T18:58:15.257Z,6.33
2018-04-22T19:00:42.939Z,6.67
2018-04-22T19:03:10.693Z,6.30
2018-04-22T19:05:38.276Z,6.83
2018-04-22T19:08:05.880Z,6.30
2018-04-22T19:10:34.219Z,7.03
2018-04-22T19:13:01.821Z,7.37
2018-04-22T19:15:29.470Z,7.20
2018-04-22T19:17:57.062Z,7.60
2018-04-22T19:20:25.443Z,5.60
2018-04-22T19:22:53.914Z,7.47
2018-04-22T19:25:21.546Z,7.20
2018-04-22T19:27:49.149Z,6.60
2018-04-22T19:30:17.384Z,7.07
2018-04-22T19:32:44.992Z,6.17
2018-04-22T19:35:12.705Z,7.00
2018-04-22T19:37:40.844Z,6.80
2018-04-22T19:40:08.473Z,6.17
2018-04-22T19:42:36.105Z,6.20
2018-04-22T19:45:03.952Z,6.10
2018-04-22T19:47:32.346Z,6.30
2018-04-22T19:50:00.720Z,5.60
2018-04-22T19:52:28.317Z,5.77
2018-04-22T19:54:56.569Z,5.40
2018-04-22T19:57:24.972Z,6.23
2018-04-22T19:59:53.421Z,6.83
2018-04-22T20:02:21.477Z,5.80
2018-04-22T20:04:49.071Z,5.50
2018-04-22T20:07:17.450Z,6.00
2018-04-22T20:09:45.845Z,6.47
2018-04-22T20:12:14.227Z,5.90
2018-04-22T20:14:42.579Z,5.80
2018-04-22T20:17:10.131Z,5.60
2018-04-22T20:19:37.783Z,6.70
2018-04-22T20:22:05.334Z,7.93
2018-04-22T20:24:33.096Z,6.80
2018-04-22T20:27:00.640Z,6.93
2018-04-22T20:29:28.214Z,7.87
2018-04-22T20:31:56.517Z,7.30
2018-04-22T20:34:24.027Z,7.47
2018-04-22T20:36:51.576Z,6.50
2018-04-22T20:39:19.118Z,7.40
2018-04-22T20:41:46.650Z,5.13
2018-04-22T20:44:14.939Z,5.73
2018-04-22T20:46:43.258Z,6.00
2018-04-22T20:49:10.775Z,5.80
2018-04-22T20:51:39.089Z,6.37
2018-04-22T20:54:06.627Z,5.77
2018-04-22T20:56:34.939Z,6.50
2018-04-22T20:59:02.481Z,6.00
2018-04-22T21:01:30.765Z,6.13
2018-04-22T21:03:58.300Z,6.57
2018-04-22T21:06:25.815Z,6.93
2018-04-22T21:08:53.358Z,6.77
2018-04-22T21:11:20.979Z,6.33
2018-04-22T21:13:48.470Z,6.70
2018-04-22T21:16:16.778Z,7.40
2018-04-22T21:18:44.354Z,7.00
2018-04-22T21:21:11.894Z,7.13
2018-04-22T21:23:40.178Z,6.17
2018-04-22T21:26:08.493Z,5.50
2018-04-22T21:28:36.043Z,6.40
2018-04-22T21:31:04.288Z,6.50
2018-04-22T21:33:32.597Z,5.53
2018-04-22T21:36:00.103Z,6.43
2018-04-22T21:38:27.627Z,6.60
2018-04-22T21:40:55.194Z,5.67
2018-04-22T21:43:22.728Z,6.80
2018-04-22T21:45:51.015Z,7.03
2018-04-22T21:48:19.337Z,6.67
2018-04-22T21:50:46.850Z,6.37
2018-04-22T21:53:15.146Z,5.67
2018-04-22T21:55:43.455Z,6.43
2018-04-22T21:58:10.966Z,6.77
2018-04-22T22:00:38.498Z,7.27
2018-04-22T22:03:06.012Z,6.97
2018-04-22T22:05:34.329Z,6.30
2018-04-22T22:08:01.836Z,6.90
2018-04-22T22:10:29.378Z,6.00
2018-04-22T22:12:56.884Z,6.07
2018-04-22T22:15:25.198Z,6.90
2018-04-22T22:17:52.740Z,6.63
2018-04-22T22:20:21.032Z,6.80
2018-04-22T22:22:48.600Z,6.60
2018-04-22T22:25:16.111Z,7.00
2018-04-22T22:27:43.650Z,7.03
2018-04-22T22:30:11.189Z,7.23
2018-04-22T22:32:38.705Z,7.03
2018-04-22T22:35:07.735Z,6.87
2018-04-22T22:37:36.029Z,6.90
2018-04-22T22:40:03.559Z,5.93
2018-04-22T22:42:31.077Z,6.73
2018-04-22T22:44:58.619Z,6.43
2018-04-22T22:47:26.137Z,5.87
2018-04-22T22:49:53.635Z,5.93
2018-04-22T22:52:21.920Z,6.23
2018-04-22T22:54:50.187Z,5.70
2018-04-22T22:57:18.488Z,5.90
2018-04-22T22:59:46.005Z,5.50
2018-04-22T23:02:13.560Z,5.97
2018-04-22T23:04:41.078Z,6.07
2018-04-22T23:07:08.584Z,6.30
2018-04-22T23:09:36.114Z,5.23
2018-04-22T23:12:03.638Z,5.57
2018-04-22T23:14:31.166Z,5.87
2018-04-22T23:16:58.707Z,5.67
2018-04-22T23:19:26.229Z,5.60
2018-04-22T23:21:53.756Z,5.60
2018-04-22T23:24:21.285Z,6.27
2018-04-22T23:26:48.801Z,5.57
2018-04-22T23:29:16.314Z,5.10
2018-04-22T23:31:43.859Z,5.07
2018-04-22T23:34:12.137Z,5.20
2018-04-22T23:36:40.418Z,6.63
2018-04-22T23:39:08.728Z,6.77
2018-04-22T23:41:36.236Z,5.40
2018-04-22T23:44:03.750Z,6.00
2018-04-22T23:46:31.257Z,6.10
2018-04-22T23:48:58.790Z,5.50
2018-04-22T23:51:26.305Z,5.83
2018-04-22T23:53:53.832Z,6.30
2018-04-22T23:56:21.378Z,5.60
2018-04-22T23:58:48.901Z,6.50
